This is the latest recevied weather packets stored in our database for station/object IU1TLK-10. If no packets are shown the sender has not sent any weather packets the latest 10 day(s).
| Time | Temp. | Humidity | Pressure | Rain* | Wind** | Luminosity | Snow |
|---|---|---|---|---|---|---|---|
| 1777583905 | 11.11° C | 61% | 1026.9 hPa | - | - | - | - |
| 1777582106 | 11.67° C | 59% | 1026.8 hPa | - | - | - | - |
| 1777580306 | 11.67° C | 57% | 1026.4 hPa | - | - | - | - |
| 1777578506 | 12.22° C | 56% | 1026.2 hPa | - | - | - | - |
| 1777576706 | 12.78° C | 55% | 1026 hPa | - | - | - | - |
| 1777574906 | 12.78° C | 55% | 1025.6 hPa | - | - | - | - |
| 1777573106 | 12.78° C | 55% | 1025.3 hPa | - | - | - | - |
| 1777571305 | 12.78° C | 55% | 1025.1 hPa | - | - | - | - |
| 1777569505 | 13.33° C | 53% | 1024.9 hPa | - | - | - | - |
| 1777567705 | 13.89° C | 51% | 1025 hPa | - | - | - | - |
| 1777565905 | 13.89° C | 45% | 1024.9 hPa | - | - | - | - |
| 1777564105 | 14.44° C | 44% | 1025 hPa | - | - | - | - |
| 1777562304 | 14.44° C | 44% | 1025.1 hPa | - | - | - | - |
| 1777560506 | 14.44° C | 44% | 1025.2 hPa | - | - | - | - |
| 1777558706 | 15° C | 44% | 1025.6 hPa | - | - | - | - |
| 1777556905 | 15° C | 44% | 1025.9 hPa | - | - | - | - |
| 1777555105 | 14.44° C | 45% | 1026.2 hPa | - | - | - | - |
| 1777553305 | 13.89° C | 46% | 1026.5 hPa | - | - | - | - |
| 1777551504 | 13.33° C | 47% | 1026.5 hPa | - | - | - | - |
| 1777549704 | 13.33° C | 48% | 1026.6 hPa | - | - | - | - |
| 1777547904 | 12.78° C | 49% | 1026.7 hPa | - | - | - | - |
| 1777546104 | 12.22° C | 52% | 1026.7 hPa | - | - | - | - |
| 1777544303 | 11.67° C | 54% | 1026.6 hPa | - | - | - | - |
| 1777542503 | 11.67° C | 55% | 1026.5 hPa | - | - | - | - |
| 1777540703 | 11.67° C | 57% | 1026.5 hPa | - | - | - | - |
* Rain since midnight (hover to see other rain measurements)
** Current wind speed in m/s (hover to see current wind gust speed)